Longstown, Pennsylvania
Current Conditions -  °F | °C
As of 8:53 AM on Monday 22 Dec 2014 (Local Time) from KTHV Reporting Station
Haze Haze  
Wind Chill: 27°   Ceiling: 4000
Heat Index: 27°   Visibility: 4mi
Dew Point: 24°   Wind: 0mph
Humidity: 89%   Direction: NA
Pressure: 30.29"   Gusts: NA
Location:  39.9768°N, 76.6853°W
Report Text: KTHV 221353Z AUTO 00000KT 4SM BR OVC040 M03/M04 A3029 RMK AO2 SLP268 T10281044
Loading
Personal Weather Stations






























Interactive Weather Map New forecast layout! Learn more

10-Day Weather Forecast

Advertisements
Track Severe Weather on mobile